createdAt,value
2023-03-27T00:01:21.731Z,5.50
2023-03-27T00:03:50.985Z,5.50
2023-03-27T00:06:21.834Z,5.40
2023-03-27T00:08:52.105Z,5.40
2023-03-27T00:11:24.860Z,5.30
2023-03-27T00:13:54.774Z,5.30
2023-03-27T00:16:25.292Z,5.30
2023-03-27T00:18:54.263Z,5.30
2023-03-27T00:21:23.738Z,5.20
2023-03-27T00:23:52.364Z,5.20
2023-03-27T00:26:22.472Z,5.20
2023-03-27T00:28:52.749Z,5.10
2023-03-27T00:31:21.396Z,5.00
2023-03-27T00:33:50.015Z,5.10
2023-03-27T00:36:18.560Z,5.00
2023-03-27T00:38:47.190Z,5.00
2023-03-27T00:41:15.841Z,4.90
2023-03-27T00:43:45.869Z,4.90
2023-03-27T00:46:31.495Z,4.90
2023-03-27T00:49:04.740Z,4.90
2023-03-27T00:51:33.878Z,4.90
2023-03-27T00:54:02.540Z,4.80
2023-03-27T00:56:33.759Z,4.80
2023-03-27T00:59:07.063Z,4.80
2023-03-27T01:01:36.585Z,4.80
2023-03-27T01:04:09.020Z,4.70
2023-03-27T01:06:39.597Z,4.70
2023-03-27T01:09:09.224Z,4.60
2023-03-27T01:11:47.570Z,4.60
2023-03-27T01:14:27.993Z,4.50
2023-03-27T01:17:10.624Z,4.50
2023-03-27T01:20:03.883Z,4.50
2023-03-27T01:23:35.489Z,4.40
2023-03-27T01:26:44.846Z,4.40
2023-03-27T01:29:19.979Z,4.30
2023-03-27T01:32:13.362Z,4.30
2023-03-27T01:35:04.923Z,4.20
2023-03-27T01:38:01.335Z,4.20
2023-03-27T01:40:36.854Z,4.20
2023-03-27T01:43:11.668Z,4.20
2023-03-27T01:45:46.087Z,4.20
2023-03-27T01:48:18.466Z,4.10
2023-03-27T01:50:49.963Z,4.10
2023-03-27T01:53:23.035Z,4.10
2023-03-27T01:55:58.284Z,4.00
2023-03-27T01:58:33.206Z,3.90
2023-03-27T02:01:03.839Z,3.90
2023-03-27T02:03:36.414Z,3.90
2023-03-27T02:06:09.604Z,3.90
2023-03-27T02:08:46.583Z,3.90
2023-03-27T02:11:23.597Z,3.90
2023-03-27T02:13:55.554Z,3.80
2023-03-27T02:16:28.806Z,3.80
2023-03-27T02:19:00.359Z,3.80
2023-03-27T02:21:31.311Z,3.80
2023-03-27T02:24:03.138Z,3.70
2023-03-27T02:26:34.391Z,3.70
2023-03-27T02:29:13.245Z,3.70
2023-03-27T02:31:53.103Z,3.70
2023-03-27T02:34:49.273Z,3.70
2023-03-27T02:37:32.433Z,3.60
2023-03-27T02:40:39.938Z,3.60
2023-03-27T02:43:35.839Z,3.60
2023-03-27T02:46:16.071Z,3.60
2023-03-27T02:48:48.578Z,3.60
2023-03-27T02:51:22.184Z,3.60
2023-03-27T02:53:55.752Z,3.50
2023-03-27T02:56:26.194Z,3.60
2023-03-27T02:59:01.343Z,3.50
2023-03-27T03:01:34.735Z,3.50
2023-03-27T03:04:23.673Z,3.60
2023-03-27T03:07:30.628Z,3.60
2023-03-27T03:09:59.279Z,3.60
2023-03-27T03:12:27.863Z,3.50
2023-03-27T03:14:57.879Z,3.50
2023-03-27T03:17:26.461Z,3.40
2023-03-27T03:19:55.004Z,3.40
2023-03-27T03:22:23.615Z,3.40
2023-03-27T03:24:54.128Z,3.40
2023-03-27T03:27:29.095Z,3.40
2023-03-27T03:30:07.504Z,3.30
2023-03-27T03:32:43.519Z,3.30
2023-03-27T03:35:13.767Z,3.30
2023-03-27T03:37:42.921Z,3.30
2023-03-27T03:40:15.014Z,3.40
2023-03-27T03:42:48.347Z,3.40
2023-03-27T03:45:21.131Z,3.30
2023-03-27T03:47:50.035Z,3.30
2023-03-27T03:50:18.817Z,3.30
2023-03-27T03:52:47.870Z,3.30
2023-03-27T03:55:16.928Z,3.20
2023-03-27T03:57:48.200Z,3.20
2023-03-27T04:00:25.615Z,3.10
2023-03-27T04:02:57.478Z,3.10
2023-03-27T04:05:27.067Z,3.10
2023-03-27T04:07:59.935Z,3.10
2023-03-27T04:10:46.079Z,3.20
2023-03-27T04:13:23.812Z,3.10
2023-03-27T04:16:01.854Z,3.10
2023-03-27T04:18:40.767Z,3.20
2023-03-27T04:21:15.258Z,3.20
2023-03-27T04:23:45.545Z,3.20
2023-03-27T04:26:16.982Z,3.20
2023-03-27T04:29:10.233Z,3.20
2023-03-27T04:31:58.724Z,3.20
2023-03-27T04:34:42.969Z,3.20
2023-03-27T04:37:24.207Z,3.10
2023-03-27T04:40:14.232Z,3.10
2023-03-27T04:42:45.016Z,3.00
2023-03-27T04:45:17.162Z,3.00
2023-03-27T04:47:49.782Z,3.00
2023-03-27T04:50:19.205Z,2.90
2023-03-27T04:52:50.321Z,2.90
2023-03-27T04:55:22.960Z,2.90
2023-03-27T04:57:51.926Z,2.80
2023-03-27T05:00:23.753Z,2.80
2023-03-27T05:03:13.929Z,2.80
2023-03-27T05:05:59.387Z,2.80
2023-03-27T05:08:28.009Z,2.80
2023-03-27T05:10:57.577Z,2.80
2023-03-27T05:13:28.472Z,2.80
2023-03-27T05:15:59.116Z,2.80
2023-03-27T05:18:30.865Z,2.70
2023-03-27T05:21:00.308Z,2.70
2023-03-27T05:23:29.280Z,2.80
2023-03-27T05:26:00.732Z,2.70
2023-03-27T05:28:44.716Z,2.60
2023-03-27T05:31:14.151Z,2.60
2023-03-27T05:34:00.574Z,2.60
2023-03-27T05:36:32.826Z,2.60
2023-03-27T05:39:01.949Z,2.60
2023-03-27T05:41:38.922Z,2.60
2023-03-27T05:44:08.311Z,2.50
2023-03-27T05:46:42.624Z,2.50
2023-03-27T05:49:18.414Z,2.50
2023-03-27T05:51:52.639Z,2.60
2023-03-27T05:54:22.700Z,2.60
2023-03-27T05:57:02.267Z,2.60
2023-03-27T05:59:30.938Z,2.60
2023-03-27T06:02:18.638Z,2.60
2023-03-27T06:04:58.977Z,2.70
2023-03-27T06:07:31.533Z,2.70
2023-03-27T06:10:05.418Z,2.80
2023-03-27T06:12:34.131Z,2.80
2023-03-27T06:15:18.229Z,2.90
2023-03-27T06:18:02.830Z,3.00
2023-03-27T06:20:39.022Z,3.10
2023-03-27T06:23:09.301Z,3.20
2023-03-27T06:25:39.778Z,3.30
2023-03-27T06:28:11.411Z,3.30
2023-03-27T06:30:51.143Z,3.40
2023-03-27T06:33:35.017Z,3.60
2023-03-27T06:36:10.114Z,3.70
2023-03-27T06:38:42.454Z,3.80
2023-03-27T06:41:11.587Z,4.00
2023-03-27T06:43:55.850Z,4.10
2023-03-27T06:46:42.705Z,4.30
2023-03-27T06:49:23.432Z,4.40
2023-03-27T06:51:54.184Z,4.50
2023-03-27T06:54:24.240Z,4.50
2023-03-27T06:56:55.696Z,4.40
2023-03-27T06:59:24.846Z,4.70
2023-03-27T07:01:59.457Z,4.70
2023-03-27T07:04:57.836Z,4.80
2023-03-27T07:07:40.965Z,4.80
2023-03-27T07:10:11.690Z,4.90
2023-03-27T07:12:42.093Z,4.90
2023-03-27T07:15:12.057Z,5.00
2023-03-27T07:17:48.535Z,4.90
2023-03-27T07:20:20.372Z,4.90
2023-03-27T07:22:50.833Z,5.00
2023-03-27T07:25:32.724Z,5.10
2023-03-27T07:28:03.248Z,5.20
2023-03-27T07:30:34.853Z,5.20
2023-03-27T07:33:03.749Z,5.10
2023-03-27T07:35:34.593Z,5.10
2023-03-27T07:38:23.290Z,5.10
2023-03-27T07:41:14.653Z,5.10
2023-03-27T07:43:46.000Z,5.20
2023-03-27T07:46:14.780Z,5.20
2023-03-27T07:48:43.382Z,5.20
2023-03-27T07:51:18.319Z,5.20
2023-03-27T07:53:49.176Z,5.30
2023-03-27T07:56:24.546Z,5.40
2023-03-27T07:59:11.754Z,5.40
2023-03-27T08:01:42.325Z,5.40
2023-03-27T08:04:11.555Z,5.50
2023-03-27T08:06:42.620Z,5.60
2023-03-27T08:09:17.247Z,5.70
2023-03-27T08:11:50.453Z,5.80
2023-03-27T08:14:19.167Z,5.90
2023-03-27T08:16:48.100Z,6.00
2023-03-27T08:19:18.643Z,6.00
2023-03-27T08:21:50.898Z,6.10
2023-03-27T08:24:21.138Z,6.10
2023-03-27T08:27:07.117Z,6.10
2023-03-27T08:29:40.193Z,6.20
2023-03-27T08:32:10.706Z,6.30
2023-03-27T08:34:42.379Z,6.50
2023-03-27T08:37:11.269Z,6.60
2023-03-27T08:39:52.090Z,6.60
2023-03-27T08:42:27.319Z,6.70
2023-03-27T08:44:57.764Z,6.70
2023-03-27T08:47:44.897Z,6.70
2023-03-27T08:50:32.424Z,6.70
2023-03-27T08:53:21.111Z,6.70
2023-03-27T08:55:51.360Z,6.70
2023-03-27T08:58:42.591Z,6.70
2023-03-27T09:01:41.248Z,6.70
2023-03-27T09:04:23.696Z,6.60
2023-03-27T09:07:01.322Z,6.60
2023-03-27T09:09:38.805Z,6.60
2023-03-27T09:12:25.324Z,6.60
2023-03-27T09:14:58.064Z,6.70
2023-03-27T09:17:31.211Z,6.80
2023-03-27T09:20:17.651Z,6.90
2023-03-27T09:22:53.677Z,7.00
2023-03-27T09:25:38.018Z,7.00
2023-03-27T09:28:25.228Z,7.00
2023-03-27T09:31:17.545Z,7.00
2023-03-27T09:33:46.393Z,7.00
2023-03-27T09:36:15.675Z,7.00
2023-03-27T09:38:50.594Z,7.20
2023-03-27T09:41:26.537Z,7.40
2023-03-27T09:44:03.407Z,7.40
2023-03-27T09:46:36.730Z,7.20
2023-03-27T09:49:12.911Z,6.90
2023-03-27T09:51:46.458Z,6.60
2023-03-27T09:54:24.805Z,6.30
2023-03-27T09:56:59.127Z,6.00
2023-03-27T09:59:32.263Z,5.80
2023-03-27T10:02:19.196Z,5.80
2023-03-27T10:05:00.003Z,5.80
2023-03-27T10:07:33.821Z,5.90
2023-03-27T10:10:26.712Z,6.00
2023-03-27T10:13:22.700Z,6.20
2023-03-27T10:16:01.418Z,6.40
2023-03-27T10:18:43.476Z,6.70
2023-03-27T10:21:28.203Z,7.00
2023-03-27T10:24:03.406Z,7.20
2023-03-27T10:26:54.238Z,7.40
2023-03-27T10:29:26.756Z,7.60
2023-03-27T10:31:58.027Z,7.80
2023-03-27T10:34:53.941Z,7.80
2023-03-27T10:37:50.115Z,7.80
2023-03-27T10:40:51.159Z,7.60
2023-03-27T10:43:37.673Z,7.60
2023-03-27T10:46:10.688Z,7.80
2023-03-27T10:48:50.199Z,7.90
2023-03-27T10:51:45.527Z,8.00
2023-03-27T10:54:27.265Z,8.00
2023-03-27T10:57:02.348Z,8.00
2023-03-27T10:59:42.120Z,8.10
2023-03-27T11:02:24.990Z,8.30
2023-03-27T11:04:59.994Z,8.20
2023-03-27T11:07:37.713Z,8.30
2023-03-27T11:10:15.027Z,8.30
2023-03-27T11:12:51.996Z,8.40
2023-03-27T11:15:24.530Z,8.60
2023-03-27T11:18:00.840Z,8.60
2023-03-27T11:20:46.060Z,8.60
2023-03-27T11:23:28.548Z,8.50
2023-03-27T11:26:17.268Z,8.50
2023-03-27T11:28:55.206Z,8.60
2023-03-27T11:31:38.131Z,8.80
2023-03-27T11:34:28.896Z,8.80
2023-03-27T11:37:04.771Z,8.80
2023-03-27T11:39:44.555Z,9.00
2023-03-27T11:42:18.595Z,9.00
2023-03-27T11:44:50.147Z,9.00
2023-03-27T11:47:43.613Z,9.00
2023-03-27T11:50:44.216Z,8.90
2023-03-27T11:53:36.727Z,9.00
2023-03-27T11:56:20.847Z,9.10
2023-03-27T11:59:10.976Z,9.20
2023-03-27T12:01:48.449Z,9.20
2023-03-27T12:04:38.564Z,9.00
2023-03-27T12:07:53.996Z,8.90
2023-03-27T12:10:30.595Z,8.80
2023-03-27T12:13:42.033Z,8.60
2023-03-27T12:16:52.121Z,8.80
2023-03-27T12:19:39.892Z,8.90
2023-03-27T12:22:37.960Z,8.90
2023-03-27T12:25:36.003Z,9.10
2023-03-27T12:28:35.437Z,9.30
2023-03-27T12:31:29.998Z,9.40
2023-03-27T12:34:02.834Z,9.40
2023-03-27T12:36:35.814Z,9.20
2023-03-27T12:39:13.776Z,9.10
2023-03-27T12:41:46.786Z,8.90
2023-03-27T12:45:04.052Z,8.70
2023-03-27T12:47:32.902Z,8.40
2023-03-27T12:50:20.079Z,7.90
2023-03-27T12:52:53.231Z,7.50
2023-03-27T12:55:32.298Z,7.30
2023-03-27T12:58:04.709Z,7.10
2023-03-27T13:01:00.887Z,7.10
2023-03-27T13:04:19.994Z,6.90
2023-03-27T13:06:56.287Z,6.90
2023-03-27T13:09:49.392Z,6.90
2023-03-27T13:12:38.967Z,7.00
2023-03-27T13:15:32.689Z,7.20
2023-03-27T13:18:21.270Z,7.40
2023-03-27T13:21:01.214Z,7.60
2023-03-27T13:23:48.068Z,7.80
2023-03-27T13:26:41.152Z,8.00
2023-03-27T13:29:17.049Z,8.20
2023-03-27T13:32:00.633Z,8.30
2023-03-27T13:34:43.556Z,8.50
2023-03-27T13:37:48.299Z,8.70
2023-03-27T13:40:24.310Z,8.70
2023-03-27T13:43:10.862Z,8.80
2023-03-27T13:45:46.870Z,8.80
2023-03-27T13:49:11.385Z,8.90
2023-03-27T13:52:28.495Z,9.00
2023-03-27T13:55:36.681Z,9.00
2023-03-27T13:58:44.888Z,8.90
2023-03-27T14:01:35.020Z,8.90
2023-03-27T14:04:25.695Z,8.90
2023-03-27T14:07:34.250Z,8.80
2023-03-27T14:10:34.377Z,8.50
2023-03-27T14:13:22.583Z,8.20
2023-03-27T14:16:32.442Z,7.60
2023-03-27T14:19:32.878Z,7.20
2023-03-27T14:22:04.865Z,7.00
2023-03-27T14:24:43.585Z,6.80
2023-03-27T14:27:32.576Z,6.80
2023-03-27T14:30:16.522Z,6.60
2023-03-27T14:32:51.604Z,6.50
2023-03-27T14:35:31.656Z,6.50
2023-03-27T14:38:16.782Z,6.50
2023-03-27T14:40:50.287Z,6.70
2023-03-27T14:43:22.271Z,6.80
2023-03-27T14:45:59.947Z,7.00
2023-03-27T14:48:33.438Z,7.10
2023-03-27T14:51:09.329Z,7.30
2023-03-27T14:53:44.181Z,7.40
2023-03-27T14:56:26.542Z,7.60
2023-03-27T14:59:21.533Z,7.70
2023-03-27T15:02:02.088Z,7.90
2023-03-27T15:04:33.093Z,8.10
2023-03-27T15:07:18.751Z,8.20
2023-03-27T15:10:22.276Z,8.30
2023-03-27T15:13:11.291Z,8.40
2023-03-27T15:15:50.226Z,8.50
2023-03-27T15:18:24.647Z,8.50
2023-03-27T15:20:55.059Z,8.40
2023-03-27T15:23:29.348Z,8.20
2023-03-27T15:26:02.894Z,7.60
2023-03-27T15:28:34.163Z,7.20
2023-03-27T15:31:04.849Z,7.10
2023-03-27T15:33:37.981Z,7.00
2023-03-27T15:36:10.186Z,6.90
2023-03-27T15:38:41.106Z,6.90
2023-03-27T15:41:36.485Z,6.90
2023-03-27T15:44:07.181Z,6.90
2023-03-27T15:46:46.163Z,6.80
2023-03-27T15:49:30.485Z,6.80
2023-03-27T15:52:01.293Z,6.70
2023-03-27T15:54:33.908Z,6.70
2023-03-27T15:57:10.877Z,6.80
2023-03-27T15:59:52.413Z,6.90
2023-03-27T16:02:25.271Z,6.90
2023-03-27T16:04:56.682Z,7.00
2023-03-27T16:07:29.957Z,7.10
2023-03-27T16:10:02.974Z,7.10
2023-03-27T16:12:33.521Z,7.10
2023-03-27T16:15:08.025Z,7.10
2023-03-27T16:17:45.855Z,7.00
2023-03-27T16:20:33.938Z,6.90
2023-03-27T16:23:04.169Z,6.80
2023-03-27T16:25:34.437Z,6.80
2023-03-27T16:28:03.260Z,6.70
2023-03-27T16:30:35.343Z,6.50
2023-03-27T16:33:04.998Z,6.40
2023-03-27T16:35:33.914Z,6.30
2023-03-27T16:38:02.853Z,6.10
2023-03-27T16:40:32.837Z,6.00
2023-03-27T16:43:01.453Z,5.90
2023-03-27T16:45:30.119Z,5.90
2023-03-27T16:47:59.074Z,5.90
2023-03-27T16:50:29.136Z,6.10
2023-03-27T16:52:57.961Z,5.90
2023-03-27T16:55:26.590Z,6.10
2023-03-27T16:57:56.718Z,6.10
2023-03-27T17:00:26.693Z,6.20
2023-03-27T17:02:55.568Z,6.20
2023-03-27T17:05:24.300Z,6.20
2023-03-27T17:07:52.945Z,6.20
2023-03-27T17:10:21.552Z,6.20
2023-03-27T17:12:50.414Z,6.20
2023-03-27T17:15:20.534Z,6.10
2023-03-27T17:17:50.130Z,6.10
2023-03-27T17:20:18.758Z,6.10
2023-03-27T17:22:47.314Z,6.00
2023-03-27T17:25:16.074Z,6.00
2023-03-27T17:27:44.655Z,6.00
2023-03-27T17:30:16.151Z,5.90
2023-03-27T17:32:52.419Z,5.80
2023-03-27T17:35:21.235Z,5.80
2023-03-27T17:37:49.848Z,5.70
2023-03-27T17:40:18.635Z,5.70
2023-03-27T17:42:47.218Z,5.60
2023-03-27T17:45:21.338Z,5.60
2023-03-27T17:47:51.730Z,5.50
2023-03-27T17:50:20.676Z,5.40
2023-03-27T17:52:49.886Z,5.40
2023-03-27T17:55:18.532Z,5.30
2023-03-27T17:57:53.125Z,5.30
2023-03-27T18:00:27.456Z,5.20
2023-03-27T18:02:57.487Z,5.20
2023-03-27T18:05:26.492Z,5.10
2023-03-27T18:07:55.183Z,5.00
2023-03-27T18:10:24.376Z,5.00
2023-03-27T18:12:53.046Z,5.00
2023-03-27T18:15:21.726Z,5.00
2023-03-27T18:17:50.449Z,4.90
2023-03-27T18:20:20.597Z,4.90
2023-03-27T18:22:49.196Z,4.80
2023-03-27T18:25:17.768Z,4.80
2023-03-27T18:27:46.390Z,4.90
2023-03-27T18:30:17.317Z,4.80
2023-03-27T18:32:47.504Z,4.80
2023-03-27T18:35:18.268Z,4.80
2023-03-27T18:37:48.276Z,4.80
2023-03-27T18:40:18.428Z,4.90
2023-03-27T18:42:47.138Z,4.90
2023-03-27T18:45:17.722Z,4.90
2023-03-27T18:47:46.372Z,4.90
2023-03-27T18:50:15.539Z,5.00
2023-03-27T18:52:44.515Z,4.90
2023-03-27T18:55:15.028Z,4.90
2023-03-27T18:57:43.571Z,4.90
2023-03-27T19:00:18.356Z,4.90
2023-03-27T19:02:47.862Z,4.90
2023-03-27T19:05:17.803Z,4.80
2023-03-27T19:07:46.812Z,4.80
2023-03-27T19:10:16.857Z,4.80
2023-03-27T19:12:50.816Z,4.60
2023-03-27T19:15:38.057Z,4.60
2023-03-27T19:18:06.716Z,4.50
2023-03-27T19:21:13.688Z,4.50
2023-03-27T19:23:49.782Z,4.40
2023-03-27T19:26:22.333Z,4.40
2023-03-27T19:28:50.903Z,4.30
2023-03-27T19:31:19.659Z,4.30
2023-03-27T19:33:48.347Z,4.20
2023-03-27T19:36:17.125Z,4.20
2023-03-27T19:38:46.127Z,4.20
2023-03-27T19:41:14.708Z,4.10
2023-03-27T19:43:44.796Z,4.10
2023-03-27T19:46:16.703Z,4.00
2023-03-27T19:48:45.594Z,4.00
2023-03-27T19:51:34.436Z,3.90
2023-03-27T19:54:03.116Z,4.00
2023-03-27T19:56:31.988Z,3.90
2023-03-27T19:59:03.604Z,3.80
2023-03-27T20:01:32.218Z,3.80
2023-03-27T20:04:01.094Z,3.80
2023-03-27T20:06:29.743Z,3.80
2023-03-27T20:09:01.016Z,3.80
2023-03-27T20:11:29.640Z,3.80
2023-03-27T20:13:58.364Z,3.80
2023-03-27T20:16:29.823Z,3.80
2023-03-27T20:19:04.515Z,3.80
2023-03-27T20:21:36.162Z,3.80
2023-03-27T20:24:09.979Z,3.70
2023-03-27T20:26:42.925Z,3.70
2023-03-27T20:29:20.649Z,3.70
2023-03-27T20:31:50.917Z,3.60
2023-03-27T20:34:22.587Z,3.70
2023-03-27T20:36:53.146Z,4.50
2023-03-27T20:39:47.103Z,3.70
2023-03-27T20:42:47.006Z,3.60
2023-03-27T20:45:19.104Z,3.70
2023-03-27T20:47:49.545Z,3.70
2023-03-27T20:50:18.514Z,3.70
2023-03-27T20:52:48.191Z,3.60
2023-03-27T20:55:32.479Z,3.70
2023-03-27T20:58:03.203Z,3.70
2023-03-27T21:00:31.736Z,3.60
2023-03-27T21:03:01.749Z,3.60
2023-03-27T21:05:32.572Z,3.60
2023-03-27T21:08:01.153Z,3.50
2023-03-27T21:10:30.098Z,3.60
2023-03-27T21:12:58.861Z,3.40
2023-03-27T21:15:27.585Z,3.40
2023-03-27T21:17:56.277Z,3.40
2023-03-27T21:20:28.873Z,3.40
2023-03-27T21:22:57.439Z,3.30
2023-03-27T21:25:26.006Z,3.30
2023-03-27T21:28:01.275Z,3.30
2023-03-27T21:30:47.169Z,3.30
2023-03-27T21:33:17.639Z,3.30
2023-03-27T21:35:49.030Z,3.30
2023-03-27T21:38:19.192Z,3.30
2023-03-27T21:40:48.179Z,3.30
2023-03-27T21:43:17.079Z,3.20
2023-03-27T21:45:46.757Z,3.20
2023-03-27T21:48:15.596Z,3.20
2023-03-27T21:50:44.235Z,3.20
2023-03-27T21:53:14.683Z,3.20
2023-03-27T21:55:43.478Z,3.10
2023-03-27T21:58:12.063Z,3.10
2023-03-27T22:00:40.843Z,3.10
2023-03-27T22:03:09.452Z,3.10
2023-03-27T22:05:38.635Z,3.00
2023-03-27T22:08:07.964Z,3.00
2023-03-27T22:10:38.098Z,3.00
2023-03-27T22:13:06.675Z,3.00
2023-03-27T22:15:35.465Z,3.10
2023-03-27T22:18:04.153Z,3.00
2023-03-27T22:20:32.742Z,3.00
2023-03-27T22:23:01.333Z,2.90
2023-03-27T22:25:29.843Z,2.90
2023-03-27T22:28:01.724Z,2.90
2023-03-27T22:30:30.750Z,2.80
2023-03-27T22:32:59.737Z,2.80
2023-03-27T22:35:28.275Z,2.80
2023-03-27T22:37:56.885Z,2.80
2023-03-27T22:40:25.435Z,2.80
2023-03-27T22:42:54.065Z,2.80
2023-03-27T22:45:23.908Z,2.70
2023-03-27T22:47:52.593Z,2.70
2023-03-27T22:50:21.268Z,2.70
2023-03-27T22:52:49.851Z,2.70
2023-03-27T22:55:18.514Z,2.70
2023-03-27T22:57:47.050Z,2.60
2023-03-27T23:00:16.999Z,2.60
2023-03-27T23:02:46.991Z,2.70
2023-03-27T23:05:15.685Z,2.70
2023-03-27T23:07:44.401Z,2.70
2023-03-27T23:10:12.992Z,2.70
2023-03-27T23:12:41.897Z,2.60
2023-03-27T23:15:11.685Z,2.60
2023-03-27T23:17:40.301Z,2.60
2023-03-27T23:20:10.914Z,2.60
2023-03-27T23:22:39.479Z,2.60
2023-03-27T23:25:08.884Z,2.60
2023-03-27T23:27:37.479Z,2.60
2023-03-27T23:30:07.605Z,2.50
2023-03-27T23:32:37.842Z,2.50
2023-03-27T23:35:07.481Z,2.50
2023-03-27T23:37:37.435Z,2.50
2023-03-27T23:40:06.979Z,2.50
2023-03-27T23:42:35.665Z,2.40
2023-03-27T23:45:04.277Z,2.40
2023-03-27T23:47:32.816Z,2.40
2023-03-27T23:50:01.356Z,2.30
2023-03-27T23:52:29.958Z,2.30
2023-03-27T23:54:59.886Z,2.30
2023-03-27T23:57:28.530Z,2.30
2023-03-27T23:59:57.082Z,2.30
